Saint-Cesaire, Canada
Current Conditions -  °F | °C
As of 6:54 PM on Saturday 22 Nov 2014 (Local Time) from CYHU Reporting Station
Haze Haze  
Wind Chill: 20°   Ceiling: 800
Heat Index: 30°   Visibility: 6mi
Dew Point: 30°   Wind: 13mph
Humidity: 100%   Direction: 170°S
Pressure: 29.9"   Gusts: NA
Location:  45.4°N, 73°W
Report Text: CYHU 222354Z AUTO 17011KT 6SM BR OVC008 M01/M01 A2990 RMK PCPN 0.5MM PAST HR SLP128
Loading
Personal Weather Stations






























Interactive Weather Map New forecast layout! Learn more

10-Day Weather Forecast

Advertisements
Track Severe Weather on mobile